createdAt,value
2018-10-17T00:01:18.276Z,90.20
2018-10-17T00:03:46.481Z,89.50
2018-10-17T00:06:13.983Z,89.70
2018-10-17T00:08:42.091Z,89.60
2018-10-17T00:11:10.287Z,88.30
2018-10-17T00:13:38.753Z,90.00
2018-10-17T00:16:06.822Z,89.20
2018-10-17T00:18:34.067Z,90.40
2018-10-17T00:21:02.100Z,90.20
2018-10-17T00:23:30.367Z,91.00
2018-10-17T00:25:58.558Z,90.40
2018-10-17T00:28:26.402Z,90.20
2018-10-17T00:30:57.272Z,90.10
2018-10-17T00:33:24.531Z,88.30
2018-10-17T00:35:51.092Z,90.00
2018-10-17T00:38:17.656Z,89.10
2018-10-17T00:40:44.158Z,89.30
2018-10-17T00:43:10.823Z,89.10
2018-10-17T00:45:37.591Z,88.00
2018-10-17T00:48:04.888Z,89.00
2018-10-17T00:50:31.483Z,87.80
2018-10-17T00:52:58.153Z,86.60
2018-10-17T00:55:25.140Z,87.30
2018-10-17T00:57:51.737Z,88.30
2018-10-17T01:00:18.286Z,89.70
2018-10-17T01:02:44.871Z,90.50
2018-10-17T01:05:11.459Z,90.40
2018-10-17T01:07:38.175Z,90.20
2018-10-17T01:10:04.766Z,90.70
2018-10-17T01:12:31.287Z,90.90
2018-10-17T01:14:57.898Z,90.50
2018-10-17T01:17:24.478Z,90.90
2018-10-17T01:19:50.986Z,91.00
2018-10-17T01:22:17.574Z,90.90
2018-10-17T01:24:45.463Z,90.50
2018-10-17T01:27:12.074Z,89.10
2018-10-17T01:29:38.661Z,89.00
2018-10-17T01:32:05.182Z,89.60
2018-10-17T01:34:31.808Z,90.30
2018-10-17T01:36:58.317Z,90.60
2018-10-17T01:39:24.967Z,90.20
2018-10-17T01:41:51.492Z,90.00
2018-10-17T01:44:18.027Z,90.10
2018-10-17T01:46:44.523Z,90.10
2018-10-17T01:49:11.117Z,89.10
2018-10-17T01:51:37.810Z,89.10
2018-10-17T01:54:04.340Z,89.00
2018-10-17T01:56:31.256Z,88.60
2018-10-17T01:58:57.980Z,88.80
2018-10-17T02:01:24.599Z,90.20
2018-10-17T02:03:51.154Z,90.60
2018-10-17T02:06:17.740Z,89.30
2018-10-17T02:08:44.176Z,90.40
2018-10-17T02:11:11.247Z,90.60
2018-10-17T02:13:38.602Z,90.30
2018-10-17T02:16:05.115Z,90.70
2018-10-17T02:18:31.692Z,90.40
2018-10-17T02:20:58.577Z,90.60
2018-10-17T02:23:25.037Z,90.50
2018-10-17T02:25:51.553Z,90.90
2018-10-17T02:28:18.160Z,91.00
2018-10-17T02:30:44.653Z,90.10
2018-10-17T02:33:12.244Z,89.90
2018-10-17T02:35:38.744Z,90.00
2018-10-17T02:38:05.265Z,88.80
2018-10-17T02:40:31.728Z,90.20
2018-10-17T02:42:58.262Z,91.20
2018-10-17T02:45:24.866Z,90.50
2018-10-17T02:47:51.329Z,91.00
2018-10-17T02:50:17.848Z,92.50
2018-10-17T02:52:44.370Z,92.30
2018-10-17T02:55:11.858Z,92.70
2018-10-17T02:57:38.571Z,93.10
2018-10-17T03:00:05.123Z,92.40
2018-10-17T03:02:31.618Z,92.80
2018-10-17T03:04:58.172Z,93.60
2018-10-17T03:07:24.650Z,93.70
2018-10-17T03:09:51.193Z,93.20
2018-10-17T03:14:49.768Z,91.50
2018-10-17T03:17:17.514Z,91.70
2018-10-17T03:19:47.612Z,91.60
2018-10-17T03:24:46.578Z,91.50
2018-10-17T03:27:14.895Z,92.30
2018-10-17T03:29:43.272Z,93.40
2018-10-17T03:32:13.256Z,93.20
2018-10-17T03:34:41.586Z,92.60
2018-10-17T03:37:09.882Z,92.00
2018-10-17T03:39:37.445Z,91.90
2018-10-17T03:42:04.945Z,91.00
2018-10-17T03:44:33.557Z,90.70
2018-10-17T03:47:00.603Z,90.70
2018-10-17T03:49:28.018Z,90.70
2018-10-17T03:51:55.568Z,91.30
2018-10-17T03:54:23.608Z,91.10
2018-10-17T03:56:52.127Z,91.20
2018-10-17T03:59:19.543Z,91.30
2018-10-17T04:01:47.090Z,91.10
2018-10-17T04:04:13.985Z,91.90
2018-10-17T04:06:40.440Z,92.20
2018-10-17T04:09:08.299Z,92.30
2018-10-17T04:11:36.131Z,91.60
2018-10-17T04:14:03.879Z,91.30
2018-10-17T04:16:31.255Z,90.50
2018-10-17T04:19:00.136Z,91.10
2018-10-17T04:21:27.548Z,91.10
2018-10-17T04:23:56.179Z,91.50
2018-10-17T04:26:24.140Z,91.80
2018-10-17T04:28:50.661Z,91.50
2018-10-17T04:31:19.901Z,92.30
2018-10-17T04:33:46.816Z,91.30
2018-10-17T04:36:15.068Z,91.20
2018-10-17T04:41:19.012Z,91.40
2018-10-17T04:43:47.368Z,91.60
2018-10-17T04:46:14.494Z,91.50
2018-10-17T04:48:41.235Z,90.90
2018-10-17T04:51:08.746Z,91.40
2018-10-17T04:53:39.338Z,91.10
2018-10-17T04:56:06.988Z,90.80
2018-10-17T04:58:34.593Z,90.30
2018-10-17T05:01:02.007Z,90.50
2018-10-17T05:03:28.641Z,90.50
2018-10-17T05:05:56.096Z,90.80
2018-10-17T05:10:57.139Z,90.70
2018-10-17T05:13:23.727Z,90.30
2018-10-17T05:15:50.644Z,89.70
2018-10-17T05:23:25.578Z,88.90
2018-10-17T05:25:52.247Z,91.00
2018-10-17T05:28:21.162Z,91.90
2018-10-17T05:30:49.863Z,91.80
2018-10-17T05:33:18.122Z,92.00
2018-10-17T05:35:45.400Z,92.10
2018-10-17T05:38:13.726Z,92.40
2018-10-17T05:40:41.216Z,91.60
2018-10-17T05:43:09.854Z,90.80
2018-10-17T05:45:36.424Z,90.20
2018-10-17T05:48:03.688Z,90.20
2018-10-17T05:50:31.438Z,90.30
2018-10-17T05:52:58.691Z,90.10
2018-10-17T05:55:27.703Z,89.30
2018-10-17T05:57:55.363Z,89.20
2018-10-17T06:00:23.544Z,89.90
2018-10-17T06:02:52.141Z,89.60
2018-10-17T06:05:20.562Z,90.00
2018-10-17T06:07:49.178Z,90.10
2018-10-17T06:10:17.221Z,90.10
2018-10-17T06:12:45.524Z,90.00
2018-10-17T06:15:13.241Z,90.90
2018-10-17T06:17:40.167Z,91.10
2018-10-17T06:20:08.090Z,91.50
2018-10-17T06:22:35.577Z,91.20
2018-10-17T06:27:34.652Z,91.30
2018-10-17T06:30:03.904Z,90.90
2018-10-17T06:32:31.041Z,90.80
2018-10-17T06:34:57.857Z,90.80
2018-10-17T06:37:25.438Z,90.40
2018-10-17T06:39:53.213Z,90.20
2018-10-17T06:42:21.445Z,90.40
2018-10-17T06:44:49.286Z,90.60
2018-10-17T06:47:16.062Z,90.60
2018-10-17T06:49:44.386Z,90.00
2018-10-17T06:52:11.433Z,90.00
2018-10-17T06:54:39.172Z,90.40
2018-10-17T06:57:06.460Z,90.90
2018-10-17T06:59:33.043Z,90.10
2018-10-17T07:02:01.575Z,89.40
2018-10-17T07:04:28.525Z,88.50
2018-10-17T07:06:56.344Z,89.60
2018-10-17T07:09:24.567Z,90.00
2018-10-17T07:11:51.534Z,89.70
2018-10-17T07:14:23.527Z,89.20
2018-10-17T07:16:52.017Z,88.40
2018-10-17T07:19:19.806Z,89.30
2018-10-17T07:21:47.666Z,87.90
2018-10-17T07:24:15.343Z,86.30
2018-10-17T07:26:42.193Z,85.90
2018-10-17T07:29:08.875Z,86.60
2018-10-17T07:31:36.285Z,86.50
2018-10-17T07:34:02.966Z,86.00
2018-10-17T07:36:30.194Z,85.40
2018-10-17T07:38:58.143Z,88.60
2018-10-17T07:41:25.122Z,88.70
2018-10-17T07:43:52.292Z,88.00
2018-10-17T07:46:20.341Z,87.40
2018-10-17T07:48:49.034Z,88.30
2018-10-17T07:51:16.234Z,86.40
2018-10-17T07:53:43.353Z,86.50
2018-10-17T07:56:11.897Z,85.10
2018-10-17T07:58:41.496Z,84.60
2018-10-17T08:01:11.792Z,83.10
2018-10-17T08:03:39.786Z,83.00
2018-10-17T08:06:09.621Z,82.60
2018-10-17T08:08:37.429Z,82.10
2018-10-17T08:13:37.979Z,84.90
2018-10-17T08:16:04.449Z,83.00
2018-10-17T08:18:32.860Z,82.20
2018-10-17T08:21:01.197Z,81.90
2018-10-17T08:23:30.481Z,81.30
2018-10-17T08:25:59.687Z,79.80
2018-10-17T08:28:29.344Z,81.00
2018-10-17T08:33:30.474Z,81.60
2018-10-17T08:35:59.054Z,79.50
2018-10-17T08:38:30.327Z,80.50
2018-10-17T08:40:58.261Z,80.80
2018-10-17T08:43:27.993Z,80.50
2018-10-17T08:45:55.791Z,80.50
2018-10-17T08:48:24.095Z,80.20
2018-10-17T08:50:59.333Z,79.80
2018-10-17T08:53:27.582Z,80.60
2018-10-17T08:55:55.185Z,80.00
2018-10-17T08:58:23.205Z,80.50
2018-10-17T09:00:51.273Z,79.90
2018-10-17T09:03:19.874Z,77.90
2018-10-17T09:05:49.205Z,75.70
2018-10-17T09:08:15.856Z,75.30
2018-10-17T09:10:44.104Z,74.90
2018-10-17T09:13:12.007Z,74.40
2018-10-17T09:18:14.412Z,75.20
2018-10-17T09:20:42.424Z,73.70
2018-10-17T09:23:11.277Z,74.50
2018-10-17T09:25:41.658Z,75.10
2018-10-17T09:28:11.887Z,72.70
2018-10-17T09:30:39.548Z,72.40
2018-10-17T09:33:08.546Z,74.10
2018-10-17T09:35:36.182Z,72.40
2018-10-17T09:38:04.476Z,72.10
2018-10-17T09:40:32.382Z,71.70
2018-10-17T09:43:03.695Z,72.50
2018-10-17T09:45:31.903Z,71.40
2018-10-17T09:48:00.334Z,72.80
2018-10-17T09:50:29.293Z,72.10
2018-10-17T09:52:56.876Z,71.50
2018-10-17T09:55:24.150Z,73.10
2018-10-17T09:57:51.928Z,71.30
2018-10-17T10:00:19.731Z,70.70
2018-10-17T10:02:47.258Z,72.00
2018-10-17T10:05:15.017Z,72.00
2018-10-17T10:07:42.517Z,70.40
2018-10-17T10:10:10.179Z,71.80
2018-10-17T10:12:39.201Z,70.80
2018-10-17T10:15:06.659Z,73.20
2018-10-17T10:17:34.872Z,74.50
2018-10-17T10:20:02.742Z,75.80
2018-10-17T10:22:30.531Z,76.20
2018-10-17T10:24:59.179Z,77.60
2018-10-17T10:27:26.973Z,76.80
2018-10-17T10:29:56.109Z,76.60
2018-10-17T10:32:24.560Z,77.70
2018-10-17T10:34:52.630Z,76.70
2018-10-17T10:37:19.503Z,76.90
2018-10-17T10:39:46.328Z,77.10
2018-10-17T10:42:14.820Z,76.20
2018-10-17T10:44:43.583Z,76.10
2018-10-17T10:47:13.278Z,76.10
2018-10-17T10:49:41.566Z,76.40
2018-10-17T10:52:10.162Z,77.20
2018-10-17T10:54:38.704Z,80.00
2018-10-17T10:57:07.386Z,78.70
2018-10-17T10:59:36.186Z,80.10
2018-10-17T11:02:04.409Z,78.60
2018-10-17T11:04:32.978Z,77.80
2018-10-17T11:07:02.712Z,77.70
2018-10-17T11:09:31.285Z,79.20
2018-10-17T11:11:58.725Z,78.40
2018-10-17T11:14:26.274Z,78.50
2018-10-17T11:16:53.981Z,79.70
2018-10-17T11:19:21.357Z,78.50
2018-10-17T11:21:49.928Z,77.30
2018-10-17T11:24:18.751Z,75.20
2018-10-17T11:29:19.400Z,77.10
2018-10-17T11:31:47.330Z,75.10
2018-10-17T11:34:15.936Z,75.40
2018-10-17T11:39:20.389Z,74.90
2018-10-17T11:41:48.738Z,74.80
2018-10-17T11:44:17.221Z,75.00
2018-10-17T11:46:45.032Z,76.40
2018-10-17T11:49:11.882Z,74.40
2018-10-17T11:51:40.140Z,75.00
2018-10-17T11:54:08.057Z,75.30
2018-10-17T11:56:36.902Z,74.30
2018-10-17T11:59:04.621Z,72.80
2018-10-17T12:01:32.264Z,72.70
2018-10-17T12:03:59.681Z,73.80
2018-10-17T12:06:27.223Z,73.30
2018-10-17T12:08:56.228Z,74.30
2018-10-17T12:11:27.516Z,74.50
2018-10-17T12:13:55.104Z,74.70
2018-10-17T12:16:22.710Z,73.30
2018-10-17T12:21:23.005Z,75.50
2018-10-17T12:23:51.662Z,75.30
2018-10-17T12:26:20.180Z,75.10
2018-10-17T12:28:47.555Z,74.70
2018-10-17T12:31:15.867Z,74.70
2018-10-17T12:33:43.475Z,75.20
2018-10-17T12:36:11.980Z,74.00
2018-10-17T12:38:40.041Z,72.60
2018-10-17T12:41:07.714Z,73.90
2018-10-17T12:43:36.939Z,73.10
2018-10-17T12:46:04.080Z,73.30
2018-10-17T12:48:32.481Z,72.00
2018-10-17T12:51:00.623Z,72.30
2018-10-17T12:53:27.207Z,73.30
2018-10-17T12:55:55.834Z,72.90
2018-10-17T12:58:22.915Z,73.00
2018-10-17T13:00:51.629Z,72.90
2018-10-17T13:03:20.121Z,73.30
2018-10-17T13:05:47.554Z,72.90
2018-10-17T13:10:47.673Z,74.10
2018-10-17T13:13:14.959Z,72.50
2018-10-17T13:15:45.455Z,71.10
2018-10-17T13:18:14.706Z,71.80
2018-10-17T13:20:42.040Z,71.90
2018-10-17T13:23:09.477Z,72.20
2018-10-17T13:25:37.454Z,72.90
2018-10-17T13:28:04.635Z,73.30
2018-10-17T13:30:31.755Z,73.60
2018-10-17T13:35:32.940Z,73.40
2018-10-17T13:38:06.061Z,72.50
2018-10-17T13:40:33.067Z,73.80
2018-10-17T13:43:02.394Z,73.00
2018-10-17T13:45:29.922Z,73.40
2018-10-17T13:50:29.449Z,72.90
2018-10-17T13:52:57.814Z,74.50
2018-10-17T13:55:24.793Z,74.90
2018-10-17T14:00:27.576Z,73.10
2018-10-17T14:02:55.901Z,73.50
2018-10-17T14:05:23.564Z,71.60
2018-10-17T14:07:51.635Z,71.60
2018-10-17T14:10:20.122Z,73.10
2018-10-17T14:12:47.569Z,72.70
2018-10-17T14:15:15.709Z,73.70
2018-10-17T14:17:42.811Z,73.80
2018-10-17T14:20:10.493Z,74.70
2018-10-17T14:22:38.254Z,75.00
2018-10-17T14:25:06.916Z,72.90
2018-10-17T14:27:35.334Z,73.90
2018-10-17T14:30:02.886Z,75.60
2018-10-17T14:32:31.251Z,76.20
2018-10-17T14:34:58.626Z,77.20
2018-10-17T14:37:26.527Z,76.80
2018-10-17T14:39:55.410Z,75.80
2018-10-17T14:42:23.346Z,77.20
2018-10-17T14:44:50.212Z,76.40
2018-10-17T14:47:17.249Z,77.60
2018-10-17T14:49:44.152Z,77.40
2018-10-17T14:52:11.859Z,76.90
2018-10-17T14:54:40.885Z,77.50
2018-10-17T14:57:09.299Z,77.00
2018-10-17T15:02:08.944Z,77.60
2018-10-17T15:04:37.668Z,77.10
2018-10-17T15:07:04.960Z,77.70
2018-10-17T15:09:32.507Z,76.60
2018-10-17T15:12:00.933Z,76.60
2018-10-17T15:14:30.982Z,77.50
2018-10-17T15:16:58.431Z,77.60
2018-10-17T15:19:26.459Z,76.70
2018-10-17T15:21:54.205Z,77.10
2018-10-17T15:29:27.869Z,75.90
2018-10-17T15:31:54.921Z,77.10
2018-10-17T15:34:22.134Z,77.00
2018-10-17T15:36:48.772Z,75.50
2018-10-17T15:39:16.101Z,75.40
2018-10-17T15:41:43.455Z,76.30
2018-10-17T15:44:11.896Z,76.70
2018-10-17T15:46:39.092Z,76.00
2018-10-17T15:49:09.270Z,76.90
2018-10-17T15:51:37.029Z,77.60
2018-10-17T15:54:04.916Z,77.40
2018-10-17T15:56:32.351Z,78.60
2018-10-17T15:59:06.146Z,78.20
2018-10-17T16:01:35.817Z,78.80
2018-10-17T16:04:03.283Z,80.10
2018-10-17T16:06:33.953Z,79.70
2018-10-17T16:11:34.050Z,78.90
2018-10-17T16:14:02.867Z,80.20
2018-10-17T16:16:31.666Z,79.70
2018-10-17T16:18:59.492Z,79.40
2018-10-17T16:21:29.098Z,79.80
2018-10-17T16:23:57.484Z,81.10
2018-10-17T16:26:24.068Z,81.20
2018-10-17T16:28:50.555Z,80.70
2018-10-17T16:31:18.343Z,80.80
2018-10-17T16:33:45.573Z,81.40
2018-10-17T16:36:13.760Z,81.00
2018-10-17T16:38:43.245Z,81.10
2018-10-17T16:41:11.220Z,80.80
2018-10-17T16:43:39.416Z,81.80
2018-10-17T16:46:07.608Z,81.80
2018-10-17T16:48:34.156Z,82.10
2018-10-17T16:51:02.558Z,82.60
2018-10-17T16:53:30.404Z,82.40
2018-10-17T16:55:57.591Z,82.30
2018-10-17T16:58:25.010Z,82.80
2018-10-17T17:00:53.151Z,83.70
2018-10-17T17:03:20.492Z,85.30
2018-10-17T17:05:47.645Z,85.00
2018-10-17T17:08:14.753Z,88.50
2018-10-17T17:10:44.879Z,88.70
2018-10-17T17:13:12.741Z,88.30
2018-10-17T17:15:40.001Z,88.00
2018-10-17T17:20:38.792Z,90.20
2018-10-17T17:23:06.527Z,90.50
2018-10-17T17:25:34.287Z,90.90
2018-10-17T17:28:01.370Z,90.20
2018-10-17T17:30:28.531Z,90.20
2018-10-17T17:32:57.604Z,90.30
2018-10-17T17:35:27.787Z,90.70
2018-10-17T17:37:54.497Z,90.00
2018-10-17T17:40:22.065Z,89.10
2018-10-17T17:42:49.873Z,88.40
2018-10-17T17:45:18.008Z,89.40
2018-10-17T17:47:45.129Z,89.80
2018-10-17T17:52:44.067Z,88.70
2018-10-17T17:55:12.398Z,88.30
2018-10-17T17:57:39.036Z,87.60
2018-10-17T18:02:42.390Z,88.80
2018-10-17T18:05:10.863Z,89.20
2018-10-17T18:07:37.597Z,89.00
2018-10-17T18:10:07.529Z,90.00
2018-10-17T18:12:36.093Z,90.20
2018-10-17T18:15:04.319Z,89.80
2018-10-17T18:17:32.186Z,89.50
2018-10-17T18:20:00.049Z,89.80
2018-10-17T18:22:29.512Z,90.10
2018-10-17T18:24:57.907Z,91.00
2018-10-17T18:27:25.002Z,90.30
2018-10-17T18:29:53.242Z,90.40
2018-10-17T18:32:22.411Z,90.40
2018-10-17T18:34:49.853Z,90.60
2018-10-17T18:37:17.654Z,90.00
2018-10-17T18:39:45.832Z,89.90
2018-10-17T18:42:13.873Z,89.80
2018-10-17T18:44:43.616Z,90.00
2018-10-17T18:47:10.359Z,90.20
2018-10-17T18:49:38.925Z,91.20
2018-10-17T18:52:09.519Z,91.30
2018-10-17T18:54:39.847Z,91.70
2018-10-17T18:57:10.029Z,91.70
2018-10-17T18:59:39.948Z,91.40
2018-10-17T19:02:07.796Z,91.50
2018-10-17T19:04:35.801Z,92.10
2018-10-17T19:07:03.064Z,91.70
2018-10-17T19:09:32.663Z,91.50
2018-10-17T19:12:00.008Z,92.80
2018-10-17T19:14:27.500Z,92.10
2018-10-17T19:16:54.010Z,91.50
2018-10-17T19:19:22.667Z,91.60
2018-10-17T19:21:49.149Z,91.80
2018-10-17T19:24:15.684Z,92.20
2018-10-17T19:26:42.155Z,92.10
2018-10-17T19:29:08.803Z,92.00
2018-10-17T19:31:35.333Z,92.80
2018-10-17T19:34:01.820Z,94.40
2018-10-17T19:36:28.329Z,94.10
2018-10-17T19:38:56.263Z,94.00
2018-10-17T19:41:23.049Z,93.50
2018-10-17T19:43:50.000Z,92.70
2018-10-17T19:46:16.611Z,92.00
2018-10-17T19:48:43.056Z,91.90
2018-10-17T19:51:09.501Z,93.00
2018-10-17T19:53:36.181Z,93.30
2018-10-17T19:56:02.830Z,94.20
2018-10-17T19:58:29.328Z,93.80
2018-10-17T20:00:56.008Z,93.30
2018-10-17T20:03:22.518Z,93.20
2018-10-17T20:05:49.010Z,92.60
2018-10-17T20:10:48.246Z,92.10
2018-10-17T20:13:14.771Z,92.70
2018-10-17T20:15:41.235Z,94.10
2018-10-17T20:18:08.014Z,93.50
2018-10-17T20:20:34.550Z,93.50
2018-10-17T20:23:01.417Z,94.20
2018-10-17T20:25:29.015Z,93.80
2018-10-17T20:27:55.531Z,93.00
2018-10-17T20:30:22.024Z,92.70
2018-10-17T20:32:48.498Z,92.80
2018-10-17T20:35:15.097Z,92.80
2018-10-17T20:37:41.698Z,92.60
2018-10-17T20:40:12.023Z,92.30
2018-10-17T20:42:38.491Z,91.90
2018-10-17T20:45:05.006Z,92.40
2018-10-17T20:47:31.568Z,93.40
2018-10-17T20:49:58.230Z,93.10
2018-10-17T20:52:24.953Z,92.30
2018-10-17T20:54:51.693Z,92.20
2018-10-17T20:57:18.167Z,92.60
2018-10-17T20:59:44.694Z,92.70
2018-10-17T21:02:11.216Z,92.80
2018-10-17T21:04:38.900Z,92.90
2018-10-17T21:07:05.336Z,93.60
2018-10-17T21:09:31.835Z,93.70
2018-10-17T21:11:58.313Z,93.40
2018-10-17T21:14:24.836Z,93.80
2018-10-17T21:16:51.377Z,93.70
2018-10-17T21:19:17.858Z,93.50
2018-10-17T21:21:44.328Z,94.50
2018-10-17T21:24:10.895Z,94.50
2018-10-17T21:26:37.441Z,94.20
2018-10-17T21:29:04.136Z,94.50
2018-10-17T21:31:30.675Z,96.40
2018-10-17T21:33:57.313Z,97.20
2018-10-17T21:36:23.795Z,96.60
2018-10-17T21:38:50.288Z,96.40
2018-10-17T21:41:16.836Z,95.50
2018-10-17T21:43:43.884Z,95.00
2018-10-17T21:46:10.465Z,95.30
2018-10-17T21:48:36.944Z,95.50
2018-10-17T21:51:04.586Z,95.00
2018-10-17T21:53:31.108Z,95.50
2018-10-17T21:55:57.627Z,94.40
2018-10-17T21:58:24.228Z,95.70
2018-10-17T22:00:51.163Z,95.10
2018-10-17T22:03:17.742Z,94.40
2018-10-17T22:05:44.277Z,94.30
2018-10-17T22:08:12.422Z,94.50
2018-10-17T22:10:39.184Z,94.00
2018-10-17T22:13:05.850Z,93.60
2018-10-17T22:15:32.361Z,93.10
2018-10-17T22:17:58.947Z,94.30
2018-10-17T22:20:25.460Z,93.40
2018-10-17T22:22:52.074Z,93.00
2018-10-17T22:25:18.537Z,93.10
2018-10-17T22:27:45.012Z,93.60
2018-10-17T22:30:12.513Z,94.40
2018-10-17T22:32:38.994Z,95.10
2018-10-17T22:35:05.528Z,95.20
2018-10-17T22:40:05.087Z,94.90
2018-10-17T22:42:31.553Z,94.90
2018-10-17T22:44:58.095Z,95.40
2018-10-17T22:47:24.678Z,95.60
2018-10-17T22:49:51.382Z,96.10
2018-10-17T22:52:18.423Z,95.00
2018-10-17T22:54:45.035Z,96.10
2018-10-17T22:57:12.314Z,95.00
2018-10-17T22:59:38.781Z,94.60
2018-10-17T23:02:05.362Z,95.70
2018-10-17T23:04:31.916Z,96.10
2018-10-17T23:06:58.425Z,96.50
2018-10-17T23:09:25.020Z,96.20
2018-10-17T23:11:51.500Z,95.80
2018-10-17T23:14:18.045Z,95.20
2018-10-17T23:16:44.783Z,94.90
2018-10-17T23:19:11.380Z,95.20
2018-10-17T23:21:37.877Z,95.70
2018-10-17T23:24:04.371Z,96.90
2018-10-17T23:26:31.270Z,97.70
2018-10-17T23:28:57.809Z,97.60
2018-10-17T23:31:24.335Z,97.10
2018-10-17T23:33:50.789Z,97.10
2018-10-17T23:36:17.354Z,96.90
2018-10-17T23:38:44.759Z,96.70
2018-10-17T23:41:11.284Z,96.50
2018-10-17T23:43:37.749Z,95.70
2018-10-17T23:46:04.308Z,95.50
2018-10-17T23:48:30.862Z,95.50
2018-10-17T23:50:57.311Z,95.60
2018-10-17T23:53:23.837Z,94.90
2018-10-17T23:55:50.329Z,95.10
2018-10-17T23:58:17.217Z,94.50
